Ana Sayfa
METAR-TAF:

METAR-TAF

Havaalanları :

Atina, Yunanistan

Atina Elefterios Venizelos Uluslararası Havalimanı

Enlem: 37-56N, Boylam: 023-56E, yükseklik: 94 m

Güncel hava durumu gözlemi

Rapor saat 20:50 UTC de 35 dakika önce yapıldı.
Rüzgar güneydan 5 kt, doğu/güneydoğu ve batı/güneybatı arasında değişken
Sıcaklık 11°C
Nem 66%
Basınç 1015 hPa
Görüş mesafesi 10 km veya daha fazla
2500 ft yükseklikte az bulutlu

METAR: LGAV 162050Z 18005KT 120V240 9999 FEW025 11/05 Q1015 NOSIG

Saat: 23:25 (21:25 UTC)

Tahmin

Rapor saat 17:00 UTC de 4 saat ve 25 dakika önce yapıldı.
Ayın 16'si saat 18 UTC'den ayın 17'si saat 18 UTC'ye kadar geçerli Tahmin
Rüzgar değişken yönden 5 kt
Görüş mesafesi 10 km veya daha fazla
2500 ft yükseklikte parçalı bulutlu
Dönüşüyor
ayın 17'si saat 03 UTC'den ayın 17'si saat 05 UTC'ye kadar
Rüzgar batı/güneybatıdan 12 kt

TAF: LGAV 161700Z 1618/1718 VRB05KT 9999 SCT025 BECMG 1703/1705 24012KT

4.000'den fazla havaalanı için hava durumu gözlemleri ve tahminleri (METAR ve TAF raporları).

Kullanılabilir istasyonlar harita üzerinde sarı ve kırmızı noktalarla gösterilir.

İstasyonun adını görmek için fareyi noktanın üzerinde gezdirin.

Sonrasında hava gözlem ve tahminlerini görmek için tıklayın.

Haritayı değiştirmek için: yaklaştırmak için siyah artı işaretli yeşil düğmeye ve uzaklaştırmak için de eksi işaretli düğmeye hızla tıklayın; bitişik haritalar için yeşil okları kullanın.


METAR-TAF: